ADDS TAF Data INFO

IDs: Format: Raw Decoded Include METARs

Data at: 0922 UTC 27 Nov 2014

Region: TOP
KATL 270734Z 2708/2812 27012G20KT P6SM SCT080
  FM271200 30014G24KT P6SM SCT025 BKN050
  FM271800 31015G25KT P6SM SCT040
  FM280000 32008KT P6SM FEW050


KBOS 270545Z 2706/2812 34014G22KT P6SM BKN012 OVC020
  FM270900 33013KT P6SM OVC025
  FM271200 32009KT P6SM BKN050
  FM271500 31009KT P6SM BKN025
  FM272100 32005KT P6SM OVC025
  FM280100 33006KT P6SM OVC025
  FM280300 33006KT P6SM OVC015


KBWI 270859Z 2709/2812 30006KT P6SM BKN050
  FM280400 30008KT P6SM SCT050


KCLE 270850Z 2709/2812 32006KT 4SM -SHSN SCT008 OVC030
  TEMPO 2709/2711 2SM -SHSN BKN008
  FM271400 33010KT P6SM OVC025
  FM271900 29010KT P6SM OVC035
  FM272200 29010KT 4SM -SHSN OVC015
  FM280100 28010KT 6SM -SHSN SCT008 OVC012


KCLT 270540Z 2706/2806 16003KT P6SM BKN090
  FM271400 28007KT P6SM BKN080
  FM271600 30010KT P6SM SCT080
  FM280300 33006KT P6SM FEW250


KCVG 270859Z 2709/2812 33004KT P6SM OVC100
  FM271200 32010KT P6SM OVC025
  FM271800 30012G18KT P6SM OVC035
  FM280000 30009KT P6SM BKN025
  FM280600 VRB04KT P6SM BKN025


KDCA 270859Z 2709/2806 31004KT P6SM BKN050
  FM271600 31008KT P6SM SCT025 BKN045
  FM272100 31008KT P6SM BKN045
  FM280400 31008KT P6SM SCT050


KDEN 270857Z 2709/2812 21005KT P6SM BKN200
  FM271100 21010KT P6SM SCT120 BKN200
  FM272100 25011KT P6SM SCT110 BKN160
  FM280200 21010KT P6SM SCT200


KDFW 270902Z 2709/2812 36008KT P6SM SKC
  FM271600 07005KT P6SM SKC
  FM272100 14008KT P6SM SKC


KDTW 270908Z 2709/2812 31008KT P6SM SCT035 OVC050
  FM271400 29008KT P6SM BKN045 OVC120
  FM272200 32011G19KT P6SM BKN035 OVC050
  FM280300 29008KT P6SM SCT050


KEWR 270837Z 2709/2812 32009KT P6SM FEW018 BKN080
  TEMPO 2709/2713 BKN018
  FM271300 31009KT P6SM BKN030
  FM280500 31008KT P6SM FEW030 BKN080


KFLL 270905Z 2709/2806 34009KT P6SM SKC
  FM271300 34013KT P6SM SKC


KIAD 270859Z 2709/2812 00000KT 3SM BR BKN035
  FM271300 32007KT P6SM OVC050
  FM271700 32007KT P6SM OVC030
  FM272000 32009KT P6SM BKN035
  FM280300 31007KT P6SM SCT050


KIAH 270900Z 2709/2812 01006KT P6SM SKC
  FM271800 06008KT P6SM SKC
  FM280300 VRB04KT P6SM SKC


KJFK 270837Z 2709/2812 33012KT P6SM SCT020 BKN070
  TEMPO 2709/2713 BKN020
  FM271300 31010KT P6SM BKN030
  FM280500 32010KT P6SM FEW030 BKN070


KLAS 270845Z 2709/2806 21007KT P6SM SKC
  FM271500 VRB04KT P6SM FEW250
  FM280200 20007KT P6SM BKN250


KLAX 270531Z 2706/2812 VRB03KT P6SM SKC
  FM272000 27007KT P6SM SKC
  FM280400 VRB03KT P6SM SKC


KLGA 270837Z 2709/2806 33014KT P6SM FEW040 BKN070
  TEMPO 2709/2713 BKN030
  FM271300 31010KT P6SM BKN030


KMCO 270913Z 2709/2806 31006KT P6SM SKC
  FM271600 31013G20KT P6SM FEW035
  FM272300 32008KT P6SM SKC


KMDW 270904Z 2709/2806 32008KT P6SM SCT025 OVC070
  FM271400 31011G16KT P6SM VCSH BKN015 BKN030
  FM271800 31012G18KT P6SM BKN025
  FM272000 31011G15KT P6SM SCT025
  FM280100 29006KT P6SM SCT250


KMEM 270852Z 2709/2806 31014G20KT P6SM OVC040
  TEMPO 2711/2715 OVC025
  FM271500 35010KT P6SM OVC025
  FM271800 35006KT P6SM SKC
  FM280000 VRB03KT P6SM SCT250


KMIA 270905Z 2709/2806 34008KT P6SM SKC
  FM271300 33011KT P6SM SKC


KMSP 270854Z 2709/2812 33009KT P6SM SKC
  FM271500 32004KT P6SM SCT200
  FM272200 20004KT P6SM BKN150
  FM280300 15007KT P6SM OVC080
  FM280700 13009KT 3SM -SN BKN025 OVC050


KORD 270904Z 2709/2812 31009KT P6SM SCT030 OVC080
  FM271400 31011G16KT P6SM VCSH BKN015 BKN030
  FM271800 31012G18KT P6SM BKN025
  FM272000 31011G15KT P6SM SCT025
  FM280100 29006KT P6SM SCT250


KPDX 270910Z 2709/2806 10010KT P6SM VCSH SCT050 OVC080
  FM271100 12011KT P6SM -RA OVC060
  FM271300 15012KT P6SM -RA SCT020 OVC040
  FM271700 18012G20KT 6SM -SHRA BR BKN018 OVC025
  FM272100 19011KT P6SM -SHRA SCT012 BKN025 OVC040


KPHL 270905Z 2709/2812 29008KT P6SM BKN045
  FM272200 30008KT P6SM SCT045


KPHX 270853Z 2709/2806 10005KT P6SM SKC
  FM272200 24003KT P6SM SKC
  FM280400 10004KT P6SM SKC


KPIT 270859Z 2709/2812 27003KT 2SM BR SCT003 OVC050
  FM271500 28005KT 4SM BR OVC025
  FM271800 29008KT 4SM -SHSN OVC020


KSAN 270827Z 2708/2812 VRB06KT P6SM SKC

KSEA 270901Z 2709/2812 18013G20KT P6SM -RA SCT025 OVC050
  FM271100 18013G20KT P6SM -RA BKN025 OVC030
  FM272000 20015G25KT P6SM -RA SCT025 OVC035


KSFO 270904Z 2709/2812 VRB03KT P6SM SCT200
  FM272000 28007KT P6SM FEW200
  FM280500 24004KT P6SM SKC


KSLC 270849Z 2709/2812 14010KT P6SM FEW150 SCT200
  FM272100 32005KT P6SM SCT120 BKN200
  FM280200 15008KT P6SM BKN200


KSTL 270856Z 2709/2812 34012KT P6SM OVC012
  TEMPO 2709/2711 5SM BR
  FM271600 31010KT P6SM OVC025
  FM272100 31009KT P6SM SCT025 BKN250
  FM280300 VRB04KT P6SM BKN100


KTPA 270850Z 2709/2806 VRB03KT P6SM SKC
  FM271400 33007KT P6SM FEW250
  FM271700 32011G18KT P6SM FEW030 FEW250
  FM280000 34007KT P6SM SKC



Page loaded:  09:22 UTC  |   01:22 AM Pacific  |   02:22 AM Mountain  |   03:22 AM Central  |   04:22 AM Eastern

 

ADVISORIES

FORECASTS

FORECASTS

OBSERVATIONS

USER TOOLS

ABOUT US